createdAt,value
2023-03-19T00:00:48.942Z,3.60
2023-03-19T00:03:15.600Z,3.40
2023-03-19T00:05:50.906Z,2.90
2023-03-19T00:08:17.435Z,3.37
2023-03-19T00:10:43.987Z,3.45
2023-03-19T00:13:12.780Z,3.90
2023-03-19T00:15:44.046Z,4.20
2023-03-19T00:18:15.335Z,4.25
2023-03-19T00:20:45.835Z,3.93
2023-03-19T00:23:12.682Z,3.65
2023-03-19T00:25:42.130Z,3.70
2023-03-19T00:28:12.169Z,3.78
2023-03-19T00:30:45.074Z,4.28
2023-03-19T00:33:11.678Z,3.73
2023-03-19T00:35:42.282Z,4.03
2023-03-19T00:38:11.246Z,3.92
2023-03-19T00:40:40.124Z,3.40
2023-03-19T00:43:07.058Z,3.55
2023-03-19T00:45:33.920Z,3.63
2023-03-19T00:48:02.923Z,3.97
2023-03-19T00:50:29.496Z,4.57
2023-03-19T00:52:58.287Z,3.83
2023-03-19T00:55:27.467Z,3.97
2023-03-19T00:57:58.592Z,3.80
2023-03-19T01:00:25.162Z,3.15
2023-03-19T01:02:56.588Z,3.10
2023-03-19T01:05:23.139Z,3.67
2023-03-19T01:07:50.716Z,3.40
2023-03-19T01:10:26.709Z,3.10
2023-03-19T01:12:55.817Z,3.45
2023-03-19T01:15:25.408Z,3.50
2023-03-19T01:17:54.237Z,3.80
2023-03-19T01:20:25.620Z,3.40
2023-03-19T01:22:52.213Z,3.30
2023-03-19T01:25:18.896Z,3.40
2023-03-19T01:27:47.883Z,3.15
2023-03-19T01:30:15.294Z,3.13
2023-03-19T01:32:46.680Z,3.20
2023-03-19T01:35:13.556Z,3.43
2023-03-19T01:37:40.361Z,3.40
2023-03-19T01:40:11.058Z,3.38
2023-03-19T01:42:56.327Z,3.45
2023-03-19T01:45:39.720Z,3.38
2023-03-19T01:48:07.365Z,3.10
2023-03-19T01:50:43.241Z,3.03
2023-03-19T01:53:12.749Z,3.72
2023-03-19T01:55:40.760Z,3.47
2023-03-19T01:58:08.735Z,3.40
2023-03-19T02:00:41.186Z,3.37
2023-03-19T02:03:10.168Z,3.30
2023-03-19T02:05:38.009Z,3.30
2023-03-19T02:08:09.814Z,3.85
2023-03-19T02:10:37.128Z,3.75
2023-03-19T02:13:04.358Z,3.00
2023-03-19T02:15:33.581Z,3.50
2023-03-19T02:18:00.307Z,3.38
2023-03-19T02:20:39.169Z,3.25
2023-03-19T02:23:13.985Z,3.53
2023-03-19T02:25:47.402Z,3.20
2023-03-19T02:28:25.132Z,3.30
2023-03-19T02:30:55.563Z,3.35
2023-03-19T02:33:22.087Z,2.97
2023-03-19T02:35:52.131Z,3.15
2023-03-19T02:38:24.091Z,3.40
2023-03-19T02:41:04.690Z,3.45
2023-03-19T02:43:34.127Z,3.13
2023-03-19T02:46:02.887Z,3.20
2023-03-19T02:48:29.519Z,3.20
2023-03-19T02:50:56.780Z,3.43
2023-03-19T02:53:23.517Z,3.10
2023-03-19T02:55:52.747Z,3.10
2023-03-19T02:58:21.656Z,2.60
2023-03-19T03:00:48.236Z,3.25
2023-03-19T03:03:17.191Z,3.27
2023-03-19T03:05:43.829Z,2.60
2023-03-19T03:08:10.715Z,2.78
2023-03-19T03:10:37.558Z,3.00
2023-03-19T03:13:07.178Z,2.97
2023-03-19T03:15:33.760Z,2.37
2023-03-19T03:18:03.189Z,2.50
2023-03-19T03:20:32.110Z,2.70
2023-03-19T03:23:03.735Z,2.70
2023-03-19T03:25:32.510Z,2.95
2023-03-19T03:27:59.107Z,2.70
2023-03-19T03:30:27.839Z,2.90
2023-03-19T03:32:57.323Z,2.38
2023-03-19T03:35:23.949Z,2.55
2023-03-19T03:37:53.747Z,2.97
2023-03-19T03:40:22.620Z,2.37
2023-03-19T03:42:49.164Z,2.20
2023-03-19T03:45:18.035Z,2.63
2023-03-19T03:47:47.475Z,2.30
2023-03-19T03:50:14.191Z,2.70
2023-03-19T03:52:44.143Z,2.53
2023-03-19T03:55:13.103Z,2.42
2023-03-19T03:57:41.908Z,2.00
2023-03-19T04:00:12.576Z,2.78
2023-03-19T04:02:39.197Z,2.72
2023-03-19T04:05:09.276Z,2.17
2023-03-19T04:07:37.512Z,2.50
2023-03-19T04:10:07.714Z,2.63
2023-03-19T04:12:37.809Z,2.13
2023-03-19T04:15:06.578Z,2.42
2023-03-19T04:17:33.874Z,2.47
2023-03-19T04:20:00.452Z,2.40
2023-03-19T04:22:29.450Z,2.33
2023-03-19T04:24:58.257Z,2.20
2023-03-19T04:27:28.674Z,2.92
2023-03-19T04:29:57.550Z,2.40
2023-03-19T04:32:28.842Z,2.53
2023-03-19T04:34:55.496Z,2.47
2023-03-19T04:37:22.375Z,2.40
2023-03-19T04:39:51.517Z,2.88
2023-03-19T04:42:18.060Z,2.00
2023-03-19T04:44:49.582Z,2.40
2023-03-19T04:47:20.891Z,3.10
2023-03-19T04:49:47.620Z,2.45
2023-03-19T04:52:16.365Z,2.00
2023-03-19T04:54:47.890Z,2.57
2023-03-19T04:57:16.751Z,2.60
2023-03-19T04:59:46.016Z,2.70
2023-03-19T05:02:13.168Z,2.15
2023-03-19T05:04:39.750Z,2.33
2023-03-19T05:07:06.333Z,3.07
2023-03-19T05:09:35.213Z,2.88
2023-03-19T05:12:01.745Z,3.15
2023-03-19T05:14:28.406Z,2.30
2023-03-19T05:16:54.980Z,2.83
2023-03-19T05:19:22.342Z,2.73
2023-03-19T05:21:49.216Z,3.00
2023-03-19T05:24:21.282Z,2.60
2023-03-19T05:26:47.799Z,2.88
2023-03-19T05:29:16.667Z,3.10
2023-03-19T05:31:43.246Z,3.20
2023-03-19T05:34:09.826Z,3.20
2023-03-19T05:36:36.449Z,3.20
2023-03-19T05:39:06.043Z,3.00
2023-03-19T05:41:32.654Z,2.83
2023-03-19T05:44:01.675Z,2.80
2023-03-19T05:46:28.270Z,2.80
2023-03-19T05:48:54.826Z,3.45
2023-03-19T05:51:21.400Z,2.65
2023-03-19T05:53:50.297Z,3.08
2023-03-19T05:56:19.098Z,2.93
2023-03-19T05:58:45.728Z,3.20
2023-03-19T06:01:12.368Z,3.20
2023-03-19T06:03:41.625Z,3.28
2023-03-19T06:06:08.498Z,3.00
2023-03-19T06:08:35.018Z,3.30
2023-03-19T06:11:04.073Z,3.35
2023-03-19T06:13:33.260Z,3.15
2023-03-19T06:16:00.005Z,3.25
2023-03-19T06:18:29.105Z,3.25
2023-03-19T06:21:00.479Z,3.40
2023-03-19T06:23:30.577Z,3.30
2023-03-19T06:25:59.645Z,3.35
2023-03-19T06:28:28.637Z,3.40
2023-03-19T06:30:58.668Z,3.42
2023-03-19T06:33:32.047Z,3.33
2023-03-19T06:35:59.186Z,2.97
2023-03-19T06:38:28.316Z,3.17
2023-03-19T06:40:54.887Z,2.90
2023-03-19T06:43:23.817Z,3.15
2023-03-19T06:45:55.433Z,3.10
2023-03-19T06:48:22.013Z,2.85
2023-03-19T06:50:51.062Z,3.35
2023-03-19T06:53:17.723Z,3.13
2023-03-19T06:55:52.840Z,3.00
2023-03-19T06:58:19.703Z,2.90
2023-03-19T07:00:47.844Z,3.20
2023-03-19T07:03:14.796Z,2.65
2023-03-19T07:05:41.563Z,3.35
2023-03-19T07:08:12.660Z,3.55
2023-03-19T07:10:39.665Z,3.30
2023-03-19T07:13:09.269Z,3.40
2023-03-19T07:15:36.734Z,3.15
2023-03-19T07:18:03.808Z,3.72
2023-03-19T07:20:33.058Z,3.30
2023-03-19T07:23:02.361Z,3.53
2023-03-19T07:25:29.249Z,3.65
2023-03-19T07:27:56.205Z,3.20
2023-03-19T07:30:23.588Z,3.70
2023-03-19T07:32:52.697Z,3.58
2023-03-19T07:35:25.417Z,3.30
2023-03-19T07:37:52.041Z,3.17
2023-03-19T07:40:26.391Z,3.40
2023-03-19T07:42:55.304Z,3.72
2023-03-19T07:45:21.906Z,3.88
2023-03-19T07:47:51.641Z,3.73
2023-03-19T07:50:22.651Z,3.55
2023-03-19T07:52:51.667Z,3.40
2023-03-19T07:55:18.333Z,3.53
2023-03-19T07:57:47.662Z,3.58
2023-03-19T08:00:14.676Z,4.63
2023-03-19T08:02:42.774Z,4.80
2023-03-19T08:05:09.912Z,4.13
2023-03-19T08:07:39.223Z,5.78
2023-03-19T08:10:08.921Z,6.00
2023-03-19T08:12:40.952Z,4.77
2023-03-19T08:15:10.058Z,4.45
2023-03-19T08:17:39.289Z,4.28
2023-03-19T08:20:11.453Z,3.65
2023-03-19T08:22:39.206Z,3.88
2023-03-19T08:25:09.468Z,3.37
2023-03-19T08:27:38.355Z,3.78
2023-03-19T08:30:07.829Z,3.30
2023-03-19T08:32:37.230Z,3.38
2023-03-19T08:35:04.614Z,4.10
2023-03-19T08:37:31.189Z,3.43
2023-03-19T08:39:57.809Z,3.47
2023-03-19T08:42:24.822Z,3.70
2023-03-19T08:44:51.353Z,3.70
2023-03-19T08:47:18.130Z,3.50
2023-03-19T08:49:44.740Z,3.33
2023-03-19T08:52:13.593Z,3.70
2023-03-19T08:54:40.242Z,3.88
2023-03-19T08:57:06.797Z,3.50
2023-03-19T08:59:34.302Z,4.13
2023-03-19T09:02:01.820Z,3.10
2023-03-19T09:04:29.243Z,2.83
2023-03-19T09:06:58.377Z,3.55
2023-03-19T09:09:27.786Z,3.55
2023-03-19T09:11:54.359Z,3.28
2023-03-19T09:14:20.993Z,3.67
2023-03-19T09:16:47.614Z,3.78
2023-03-19T09:19:15.374Z,3.35
2023-03-19T09:21:44.848Z,3.90
2023-03-19T09:24:11.603Z,3.20
2023-03-19T09:26:40.460Z,3.27
2023-03-19T09:29:11.913Z,3.13
2023-03-19T09:31:38.860Z,3.53
2023-03-19T09:34:07.141Z,3.42
2023-03-19T09:36:33.725Z,3.38
2023-03-19T09:39:00.275Z,3.57
2023-03-19T09:41:40.629Z,3.55
2023-03-19T09:44:16.395Z,3.85
2023-03-19T09:46:54.792Z,3.38
2023-03-19T09:49:26.541Z,3.35
2023-03-19T09:52:23.848Z,3.90
2023-03-19T09:54:58.731Z,3.05
2023-03-19T09:57:25.422Z,3.03
2023-03-19T09:59:54.918Z,2.75
2023-03-19T10:02:43.752Z,3.20
2023-03-19T10:05:13.298Z,3.20
2023-03-19T10:08:13.224Z,3.10
2023-03-19T10:10:51.927Z,3.25
2023-03-19T10:13:40.237Z,3.20
2023-03-19T10:16:15.459Z,3.67
2023-03-19T10:18:48.064Z,3.40
2023-03-19T10:21:19.269Z,3.30
2023-03-19T10:23:51.344Z,3.00
2023-03-19T10:26:25.295Z,2.95
2023-03-19T10:29:09.298Z,3.28
2023-03-19T10:32:05.019Z,2.50
2023-03-19T10:34:32.776Z,3.10
2023-03-19T10:37:04.075Z,3.10
2023-03-19T10:39:37.468Z,2.90
2023-03-19T10:42:11.068Z,3.13
2023-03-19T10:44:49.425Z,3.00
2023-03-19T10:47:17.800Z,2.55
2023-03-19T10:49:45.051Z,2.75
2023-03-19T10:52:21.008Z,3.10
2023-03-19T10:54:56.134Z,3.22
2023-03-19T10:57:27.904Z,2.60
2023-03-19T10:59:55.267Z,2.92
2023-03-19T11:02:31.204Z,2.60
2023-03-19T11:05:22.131Z,2.53
2023-03-19T11:08:00.284Z,2.72
2023-03-19T11:10:31.698Z,2.50
2023-03-19T11:13:03.036Z,2.33
2023-03-19T11:15:37.590Z,2.20
2023-03-19T11:18:30.367Z,2.40
2023-03-19T11:21:22.159Z,2.10
2023-03-19T11:23:53.547Z,2.30
2023-03-19T11:26:24.588Z,1.90
2023-03-19T11:28:52.287Z,2.00
2023-03-19T11:31:37.453Z,1.98
2023-03-19T11:34:29.342Z,2.03
2023-03-19T11:37:08.157Z,1.90
2023-03-19T11:39:53.072Z,1.65
2023-03-19T11:42:47.301Z,1.88
2023-03-19T11:45:28.997Z,1.95
2023-03-19T11:48:13.029Z,2.05
2023-03-19T11:50:51.715Z,2.20
2023-03-19T11:53:32.829Z,1.83
2023-03-19T11:56:39.102Z,2.13
2023-03-19T11:59:27.639Z,2.00
2023-03-19T12:02:17.985Z,2.30
2023-03-19T12:05:17.794Z,2.20
2023-03-19T12:07:54.487Z,1.60
2023-03-19T12:10:27.812Z,2.10
2023-03-19T12:13:28.713Z,1.80
2023-03-19T12:16:07.648Z,2.42
2023-03-19T12:18:55.892Z,2.53
2023-03-19T12:21:33.195Z,2.33
2023-03-19T12:24:07.567Z,1.92
2023-03-19T12:26:37.133Z,2.17
2023-03-19T12:29:27.056Z,2.05
2023-03-19T12:32:21.520Z,1.90
2023-03-19T12:34:53.923Z,2.10
2023-03-19T12:37:27.190Z,1.80
2023-03-19T12:40:14.615Z,1.77
2023-03-19T12:42:44.867Z,2.00
2023-03-19T12:45:37.019Z,1.80
2023-03-19T12:48:14.293Z,1.67
2023-03-19T12:50:44.124Z,1.52
2023-03-19T12:53:38.158Z,1.88
2023-03-19T12:56:13.338Z,1.38
2023-03-19T12:58:49.882Z,2.00
2023-03-19T13:01:28.820Z,1.50
2023-03-19T13:04:06.626Z,1.40
2023-03-19T13:06:37.467Z,1.38
2023-03-19T13:09:29.638Z,1.75
2023-03-19T13:12:07.901Z,1.30
2023-03-19T13:14:56.132Z,1.65
2023-03-19T13:18:06.187Z,1.50
2023-03-19T13:20:50.085Z,1.25
2023-03-19T13:23:27.980Z,1.50
2023-03-19T13:25:57.552Z,1.30
2023-03-19T13:28:29.764Z,1.30
2023-03-19T13:31:20.905Z,1.83
2023-03-19T13:34:03.093Z,1.30
2023-03-19T13:36:40.944Z,1.42
2023-03-19T13:39:18.081Z,1.40
2023-03-19T13:41:46.898Z,1.33
2023-03-19T13:44:22.765Z,1.63
2023-03-19T13:46:50.007Z,1.27
2023-03-19T13:49:19.731Z,1.52
2023-03-19T13:51:49.361Z,1.40
2023-03-19T13:54:18.783Z,1.30
2023-03-19T13:57:05.776Z,1.27
2023-03-19T13:59:39.700Z,1.45
2023-03-19T14:02:21.587Z,1.55
2023-03-19T14:04:59.616Z,1.27
2023-03-19T14:07:32.122Z,1.35
2023-03-19T14:10:00.929Z,1.25
2023-03-19T14:12:38.213Z,1.30
2023-03-19T14:15:07.356Z,1.35
2023-03-19T14:17:42.042Z,1.20
2023-03-19T14:20:12.773Z,1.13
2023-03-19T14:22:53.175Z,1.27
2023-03-19T14:25:22.392Z,2.03
2023-03-19T14:27:53.938Z,1.40
2023-03-19T14:30:35.294Z,1.67
2023-03-19T14:33:06.969Z,1.70
2023-03-19T14:35:41.383Z,1.38
2023-03-19T14:38:44.022Z,1.67
2023-03-19T14:41:19.688Z,1.52
2023-03-19T14:44:28.590Z,1.30
2023-03-19T14:47:19.556Z,1.70
2023-03-19T14:50:03.178Z,1.65
2023-03-19T14:52:43.645Z,1.58
2023-03-19T14:55:18.425Z,1.95
2023-03-19T14:57:45.036Z,1.90
2023-03-19T15:00:19.778Z,2.28
2023-03-19T15:02:52.954Z,1.98
2023-03-19T15:05:33.232Z,1.85
2023-03-19T15:08:11.912Z,1.63
2023-03-19T15:11:07.134Z,2.20
2023-03-19T15:14:04.369Z,1.73
2023-03-19T15:16:42.130Z,1.80
2023-03-19T15:19:12.250Z,1.80
2023-03-19T15:21:43.645Z,2.00
2023-03-19T15:24:17.295Z,2.10
2023-03-19T15:26:47.150Z,2.17
2023-03-19T15:29:13.797Z,2.08
2023-03-19T15:31:51.507Z,2.05
2023-03-19T15:34:26.524Z,2.13
2023-03-19T15:37:06.960Z,2.03
2023-03-19T15:39:37.945Z,2.50
2023-03-19T15:42:05.143Z,1.90
2023-03-19T15:45:11.083Z,1.95
2023-03-19T15:48:00.712Z,2.17
2023-03-19T15:50:33.945Z,2.00
2023-03-19T15:53:08.815Z,2.35
2023-03-19T15:55:36.748Z,1.80
2023-03-19T15:58:09.866Z,1.98
2023-03-19T16:00:41.410Z,2.28
2023-03-19T16:03:16.986Z,2.30
2023-03-19T16:05:43.816Z,2.35
2023-03-19T16:08:25.853Z,2.10
2023-03-19T16:10:53.422Z,1.95
2023-03-19T16:13:35.052Z,1.80
2023-03-19T16:16:06.082Z,1.90
2023-03-19T16:18:52.998Z,2.35
2023-03-19T16:21:39.284Z,2.55
2023-03-19T16:24:08.812Z,1.88
2023-03-19T16:26:43.628Z,1.52
2023-03-19T16:29:25.645Z,1.47
2023-03-19T16:32:01.278Z,1.70
2023-03-19T16:34:49.240Z,1.75
2023-03-19T16:37:40.063Z,1.80
2023-03-19T16:40:15.807Z,1.80
2023-03-19T16:42:44.475Z,1.60
2023-03-19T16:45:17.333Z,1.50
2023-03-19T16:47:45.782Z,1.77
2023-03-19T16:50:13.347Z,1.50
2023-03-19T16:52:46.096Z,2.08
2023-03-19T16:55:21.906Z,1.73
2023-03-19T16:58:03.227Z,1.73
2023-03-19T17:00:32.467Z,1.90
2023-03-19T17:03:01.876Z,1.80
2023-03-19T17:05:33.860Z,1.73
2023-03-19T17:08:05.379Z,1.77
2023-03-19T17:10:33.015Z,1.85
2023-03-19T17:13:01.330Z,2.42
2023-03-19T17:15:44.089Z,2.20
2023-03-19T17:18:17.321Z,2.65
2023-03-19T17:20:57.514Z,2.30
2023-03-19T17:23:27.129Z,2.60
2023-03-19T17:25:54.593Z,2.33
2023-03-19T17:28:23.623Z,2.30
2023-03-19T17:30:51.611Z,2.33
2023-03-19T17:33:30.531Z,2.10
2023-03-19T17:35:58.660Z,2.40
2023-03-19T17:38:36.909Z,2.80
2023-03-19T17:41:18.550Z,2.20
2023-03-19T17:43:45.558Z,2.70
2023-03-19T17:46:19.816Z,2.73
2023-03-19T17:48:52.674Z,3.08
2023-03-19T17:51:19.617Z,3.00
2023-03-19T17:53:51.743Z,2.83
2023-03-19T17:56:26.108Z,2.63
2023-03-19T17:58:53.691Z,2.90
2023-03-19T18:01:23.612Z,3.33
2023-03-19T18:03:51.436Z,2.70
2023-03-19T18:06:23.790Z,3.75
2023-03-19T18:08:50.890Z,2.60
2023-03-19T18:11:21.943Z,3.00
2023-03-19T18:13:48.622Z,0.85
2023-03-19T18:16:33.164Z,0.82
2023-03-19T18:19:02.070Z,0.88
2023-03-19T18:21:32.218Z,0.90
2023-03-19T18:23:58.784Z,1.30
2023-03-19T18:26:28.695Z,5.70
2023-03-19T18:28:55.278Z,5.18
2023-03-19T18:31:26.850Z,2.42
2023-03-19T18:34:05.911Z,1.40
2023-03-19T18:36:38.184Z,1.70
2023-03-19T18:39:14.552Z,3.60
2023-03-19T18:41:44.063Z,1.58
2023-03-19T18:44:12.351Z,1.40
2023-03-19T18:46:40.921Z,2.45
2023-03-19T18:49:36.830Z,5.43
2023-03-19T18:52:05.906Z,5.28
2023-03-19T18:54:32.578Z,2.08
2023-03-19T18:57:05.832Z,1.58
2023-03-19T18:59:33.827Z,1.20
2023-03-19T19:02:12.597Z,6.23
2023-03-19T19:04:39.169Z,2.65
2023-03-19T19:07:07.082Z,4.07
2023-03-19T19:09:33.606Z,1.95
2023-03-19T19:12:04.093Z,2.42
2023-03-19T19:14:30.950Z,0.80
2023-03-19T19:17:03.166Z,2.05
2023-03-19T19:19:29.774Z,2.83
2023-03-19T19:21:56.560Z,2.05
2023-03-19T19:24:23.113Z,0.75
2023-03-19T19:26:54.007Z,0.70
2023-03-19T19:29:24.576Z,0.60
2023-03-19T19:31:52.215Z,0.40
2023-03-19T19:34:21.305Z,0.82
2023-03-19T19:36:51.250Z,0.60
2023-03-19T19:39:18.407Z,0.80
2023-03-19T19:41:46.593Z,0.50
2023-03-19T19:44:20.850Z,0.47
2023-03-19T19:46:53.305Z,0.40
2023-03-19T19:49:22.466Z,0.50
2023-03-19T19:51:49.033Z,0.67
2023-03-19T19:54:18.710Z,0.60
2023-03-19T19:56:50.110Z,0.50
2023-03-19T19:59:25.617Z,0.60
2023-03-19T20:01:52.468Z,0.65
2023-03-19T20:04:21.806Z,0.30
2023-03-19T20:06:51.397Z,0.40
2023-03-19T20:09:17.964Z,0.40
2023-03-19T20:11:45.874Z,0.40
2023-03-19T20:14:16.093Z,0.30
2023-03-19T20:16:45.072Z,0.20
2023-03-19T20:19:18.799Z,0.30
2023-03-19T20:21:47.731Z,0.30
2023-03-19T20:24:14.375Z,0.20
2023-03-19T20:26:41.694Z,0.20
2023-03-19T20:29:16.670Z,0.20
2023-03-19T20:31:46.097Z,0.20
2023-03-19T20:34:22.520Z,0.28
2023-03-19T20:36:55.601Z,0.28
2023-03-19T20:39:24.472Z,0.25
2023-03-19T20:41:51.699Z,0.30
2023-03-19T20:44:25.636Z,0.20
2023-03-19T20:46:52.575Z,0.30
2023-03-19T20:49:21.382Z,0.30
2023-03-19T20:51:50.602Z,0.40
2023-03-19T20:54:19.519Z,0.27
2023-03-19T20:56:47.667Z,0.20
2023-03-19T20:59:14.298Z,0.20
2023-03-19T21:01:40.946Z,0.20
2023-03-19T21:04:17.862Z,0.20
2023-03-19T21:06:53.052Z,0.20
2023-03-19T21:09:21.284Z,0.20
2023-03-19T21:11:52.936Z,0.30
2023-03-19T21:14:20.319Z,0.30
2023-03-19T21:16:46.967Z,0.20
2023-03-19T21:19:16.523Z,0.20
2023-03-19T21:21:46.080Z,0.25
2023-03-19T21:24:17.595Z,0.20
2023-03-19T21:26:49.255Z,0.20
2023-03-19T21:29:24.780Z,0.20
2023-03-19T21:31:54.271Z,0.20
2023-03-19T21:34:20.817Z,0.30
2023-03-19T21:36:50.955Z,0.30
2023-03-19T21:39:20.060Z,0.30
2023-03-19T21:41:47.060Z,0.30
2023-03-19T21:44:18.179Z,0.40
2023-03-19T21:46:46.784Z,0.25
2023-03-19T21:49:13.728Z,0.30
2023-03-19T21:51:40.347Z,0.30
2023-03-19T21:54:06.943Z,0.30
2023-03-19T21:56:38.320Z,0.30
2023-03-19T21:59:13.861Z,0.40
2023-03-19T22:01:41.090Z,0.50
2023-03-19T22:04:07.944Z,0.40
2023-03-19T22:06:39.969Z,0.43
2023-03-19T22:09:09.244Z,0.50
2023-03-19T22:11:37.644Z,0.60
2023-03-19T22:14:16.157Z,0.60
2023-03-19T22:16:42.800Z,0.80
2023-03-19T22:19:14.168Z,0.70
2023-03-19T22:21:43.289Z,0.90
2023-03-19T22:24:09.898Z,0.90
2023-03-19T22:26:41.522Z,0.80
2023-03-19T22:29:15.818Z,0.80
2023-03-19T22:31:45.402Z,0.50
2023-03-19T22:34:16.836Z,0.67
2023-03-19T22:36:46.071Z,0.68
2023-03-19T22:39:13.694Z,0.73
2023-03-19T22:41:45.905Z,0.73
2023-03-19T22:44:32.647Z,0.65
2023-03-19T22:47:01.658Z,0.80
2023-03-19T22:49:29.917Z,0.73
2023-03-19T22:51:57.675Z,1.10
2023-03-19T22:54:24.301Z,0.70
2023-03-19T22:56:50.854Z,0.82
2023-03-19T22:59:17.412Z,0.80
2023-03-19T23:01:46.683Z,0.70
2023-03-19T23:04:24.020Z,0.50
2023-03-19T23:06:52.996Z,0.80
2023-03-19T23:09:31.694Z,0.57
2023-03-19T23:11:59.552Z,0.50
2023-03-19T23:14:29.983Z,0.60
2023-03-19T23:17:00.819Z,0.80
2023-03-19T23:19:32.073Z,0.50
2023-03-19T23:21:59.903Z,0.50
2023-03-19T23:24:27.902Z,0.73
2023-03-19T23:27:02.315Z,1.05
2023-03-19T23:29:34.337Z,0.90
2023-03-19T23:32:01.403Z,1.10
2023-03-19T23:34:39.835Z,0.95
2023-03-19T23:37:14.945Z,0.90
2023-03-19T23:39:42.755Z,0.90
2023-03-19T23:42:16.781Z,1.00
2023-03-19T23:44:43.774Z,1.10
2023-03-19T23:47:15.505Z,1.00
2023-03-19T23:49:42.229Z,1.30
2023-03-19T23:52:16.116Z,1.40
2023-03-19T23:54:43.120Z,1.23
2023-03-19T23:57:15.550Z,1.25
2023-03-19T23:59:44.053Z,1.40
